sensor_id;sensor_type;location;lat;lon;timestamp;P1;durP1;ratioP1;P2;durP2;ratioP2
33138;SDS011;19501;50.948;5.316;2023-04-25T00:01:37;25.00;;;6.82;;
33138;SDS011;19501;50.948;5.316;2023-04-25T00:04:03;24.98;;;6.90;;
33138;SDS011;19501;50.948;5.316;2023-04-25T00:06:31;26.25;;;7.00;;
33138;SDS011;19501;50.948;5.316;2023-04-25T00:08:57;23.00;;;6.00;;
33138;SDS011;19501;50.948;5.316;2023-04-25T00:11:23;24.60;;;6.95;;
33138;SDS011;19501;50.948;5.316;2023-04-25T00:13:49;30.83;;;7.95;;
33138;SDS011;19501;50.948;5.316;2023-04-25T00:16:17;35.92;;;8.10;;
33138;SDS011;19501;50.948;5.316;2023-04-25T00:18:45;22.85;;;6.43;;
33138;SDS011;19501;50.948;5.316;2023-04-25T00:21:16;30.42;;;8.55;;
33138;SDS011;19501;50.948;5.316;2023-04-25T00:23:43;21.65;;;7.45;;
33138;SDS011;19501;50.948;5.316;2023-04-25T00:26:10;26.88;;;7.35;;
33138;SDS011;19501;50.948;5.316;2023-04-25T00:28:36;29.63;;;7.30;;
33138;SDS011;19501;50.948;5.316;2023-04-25T00:31:02;26.13;;;7.30;;
33138;SDS011;19501;50.948;5.316;2023-04-25T00:33:28;29.17;;;7.82;;
33138;SDS011;19501;50.948;5.316;2023-04-25T00:35:55;25.02;;;7.22;;
33138;SDS011;19501;50.948;5.316;2023-04-25T00:38:20;35.00;;;7.90;;
33138;SDS011;19501;50.948;5.316;2023-04-25T00:40:46;34.78;;;7.22;;
33138;SDS011;19501;50.948;5.316;2023-04-25T00:43:12;24.65;;;6.75;;
33138;SDS011;19501;50.948;5.316;2023-04-25T00:45:38;25.13;;;7.50;;
33138;SDS011;19501;50.948;5.316;2023-04-25T00:48:05;26.35;;;6.90;;
33138;SDS011;19501;50.948;5.316;2023-04-25T00:50:32;26.70;;;7.00;;
33138;SDS011;19501;50.948;5.316;2023-04-25T00:52:59;28.73;;;7.45;;
33138;SDS011;19501;50.948;5.316;2023-04-25T00:55:28;29.85;;;6.70;;
33138;SDS011;19501;50.948;5.316;2023-04-25T00:57:56;22.17;;;6.82;;
33138;SDS011;19501;50.948;5.316;2023-04-25T01:00:22;21.00;;;6.50;;
33138;SDS011;19501;50.948;5.316;2023-04-25T01:02:48;21.10;;;6.38;;
33138;SDS011;19501;50.948;5.316;2023-04-25T01:05:14;25.70;;;7.00;;
33138;SDS011;19501;50.948;5.316;2023-04-25T01:07:40;22.92;;;6.90;;
33138;SDS011;19501;50.948;5.316;2023-04-25T01:10:08;27.60;;;6.80;;
33138;SDS011;19501;50.948;5.316;2023-04-25T01:12:34;24.95;;;6.88;;
33138;SDS011;19501;50.948;5.316;2023-04-25T01:15:00;23.63;;;6.72;;
33138;SDS011;19501;50.948;5.316;2023-04-25T01:17:26;29.05;;;6.80;;
33138;SDS011;19501;50.948;5.316;2023-04-25T01:19:52;28.85;;;7.20;;
33138;SDS011;19501;50.948;5.316;2023-04-25T01:22:18;27.95;;;7.22;;
33138;SDS011;19501;50.948;5.316;2023-04-25T01:24:44;29.77;;;6.55;;
33138;SDS011;19501;50.948;5.316;2023-04-25T01:27:10;21.42;;;6.60;;
33138;SDS011;19501;50.948;5.316;2023-04-25T01:29:36;21.30;;;6.28;;
33138;SDS011;19501;50.948;5.316;2023-04-25T01:32:02;27.80;;;7.07;;
33138;SDS011;19501;50.948;5.316;2023-04-25T01:34:29;27.05;;;7.20;;
33138;SDS011;19501;50.948;5.316;2023-04-25T01:36:55;27.83;;;7.03;;
33138;SDS011;19501;50.948;5.316;2023-04-25T01:39:23;26.55;;;6.82;;
33138;SDS011;19501;50.948;5.316;2023-04-25T01:41:49;28.80;;;7.80;;
33138;SDS011;19501;50.948;5.316;2023-04-25T01:44:15;25.33;;;7.32;;
33138;SDS011;19501;50.948;5.316;2023-04-25T01:46:41;30.80;;;7.30;;
33138;SDS011;19501;50.948;5.316;2023-04-25T01:49:07;29.35;;;7.38;;
33138;SDS011;19501;50.948;5.316;2023-04-25T01:51:33;27.65;;;7.07;;
33138;SDS011;19501;50.948;5.316;2023-04-25T01:54:02;27.83;;;8.18;;
33138;SDS011;19501;50.948;5.316;2023-04-25T01:56:31;29.73;;;7.90;;
33138;SDS011;19501;50.948;5.316;2023-04-25T01:58:58;25.88;;;6.70;;
33138;SDS011;19501;50.948;5.316;2023-04-25T02:01:24;27.27;;;7.35;;
33138;SDS011;19501;50.948;5.316;2023-04-25T02:03:50;31.75;;;7.70;;
33138;SDS011;19501;50.948;5.316;2023-04-25T02:06:15;24.70;;;7.05;;
33138;SDS011;19501;50.948;5.316;2023-04-25T02:08:41;27.63;;;7.10;;
33138;SDS011;19501;50.948;5.316;2023-04-25T02:11:07;30.88;;;7.82;;
33138;SDS011;19501;50.948;5.316;2023-04-25T02:13:32;27.48;;;7.43;;
33138;SDS011;19501;50.948;5.316;2023-04-25T02:15:58;26.27;;;7.53;;
33138;SDS011;19501;50.948;5.316;2023-04-25T02:18:24;30.33;;;7.30;;
33138;SDS011;19501;50.948;5.316;2023-04-25T02:20:51;25.80;;;6.82;;
33138;SDS011;19501;50.948;5.316;2023-04-25T02:23:17;27.13;;;6.82;;
33138;SDS011;19501;50.948;5.316;2023-04-25T02:25:44;25.42;;;7.32;;
33138;SDS011;19501;50.948;5.316;2023-04-25T02:28:09;22.80;;;7.18;;
33138;SDS011;19501;50.948;5.316;2023-04-25T02:30:35;26.27;;;7.03;;
33138;SDS011;19501;50.948;5.316;2023-04-25T02:33:01;26.48;;;7.07;;
33138;SDS011;19501;50.948;5.316;2023-04-25T02:35:27;30.65;;;7.63;;
33138;SDS011;19501;50.948;5.316;2023-04-25T02:37:52;29.20;;;8.93;;
33138;SDS011;19501;50.948;5.316;2023-04-25T02:40:18;26.88;;;7.40;;
33138;SDS011;19501;50.948;5.316;2023-04-25T02:42:44;34.80;;;7.95;;
33138;SDS011;19501;50.948;5.316;2023-04-25T02:45:10;32.53;;;8.63;;
33138;SDS011;19501;50.948;5.316;2023-04-25T02:47:36;24.60;;;7.53;;
33138;SDS011;19501;50.948;5.316;2023-04-25T02:50:02;28.35;;;7.45;;
33138;SDS011;19501;50.948;5.316;2023-04-25T02:52:28;30.38;;;7.65;;
33138;SDS011;19501;50.948;5.316;2023-04-25T02:54:54;32.22;;;7.90;;
33138;SDS011;19501;50.948;5.316;2023-04-25T02:57:20;29.58;;;8.60;;
33138;SDS011;19501;50.948;5.316;2023-04-25T02:59:46;30.63;;;8.55;;
33138;SDS011;19501;50.948;5.316;2023-04-25T03:02:11;27.30;;;8.20;;
33138;SDS011;19501;50.948;5.316;2023-04-25T03:04:37;24.30;;;7.82;;
33138;SDS011;19501;50.948;5.316;2023-04-25T03:07:03;27.48;;;7.57;;
33138;SDS011;19501;50.948;5.316;2023-04-25T03:09:29;28.70;;;7.35;;
33138;SDS011;19501;50.948;5.316;2023-04-25T03:11:55;24.50;;;7.85;;
33138;SDS011;19501;50.948;5.316;2023-04-25T03:14:20;30.88;;;8.02;;
33138;SDS011;19501;50.948;5.316;2023-04-25T03:16:46;31.38;;;8.35;;
33138;SDS011;19501;50.948;5.316;2023-04-25T03:19:12;26.08;;;7.53;;
33138;SDS011;19501;50.948;5.316;2023-04-25T03:21:40;29.80;;;7.85;;
33138;SDS011;19501;50.948;5.316;2023-04-25T03:24:06;30.25;;;8.18;;
33138;SDS011;19501;50.948;5.316;2023-04-25T03:26:32;25.75;;;7.72;;
33138;SDS011;19501;50.948;5.316;2023-04-25T03:28:58;31.38;;;8.00;;
33138;SDS011;19501;50.948;5.316;2023-04-25T03:31:23;26.92;;;7.22;;
33138;SDS011;19501;50.948;5.316;2023-04-25T03:33:49;27.33;;;7.82;;
33138;SDS011;19501;50.948;5.316;2023-04-25T03:36:15;30.30;;;7.88;;
33138;SDS011;19501;50.948;5.316;2023-04-25T03:38:41;29.90;;;7.35;;
33138;SDS011;19501;50.948;5.316;2023-04-25T03:41:07;28.85;;;7.60;;
33138;SDS011;19501;50.948;5.316;2023-04-25T03:43:33;36.38;;;8.05;;
33138;SDS011;19501;50.948;5.316;2023-04-25T03:45:58;25.58;;;6.75;;
33138;SDS011;19501;50.948;5.316;2023-04-25T03:48:25;24.13;;;6.05;;
33138;SDS011;19501;50.948;5.316;2023-04-25T03:50:52;29.25;;;7.07;;
33138;SDS011;19501;50.948;5.316;2023-04-25T03:53:18;23.13;;;6.63;;
33138;SDS011;19501;50.948;5.316;2023-04-25T03:55:44;26.80;;;6.82;;
33138;SDS011;19501;50.948;5.316;2023-04-25T03:58:10;22.08;;;7.00;;
33138;SDS011;19501;50.948;5.316;2023-04-25T04:00:36;34.20;;;8.35;;
33138;SDS011;19501;50.948;5.316;2023-04-25T04:03:01;32.15;;;7.78;;
33138;SDS011;19501;50.948;5.316;2023-04-25T04:05:27;30.10;;;8.73;;
33138;SDS011;19501;50.948;5.316;2023-04-25T04:07:53;32.00;;;8.20;;
33138;SDS011;19501;50.948;5.316;2023-04-25T04:10:20;30.02;;;8.77;;
33138;SDS011;19501;50.948;5.316;2023-04-25T04:12:46;23.17;;;7.95;;
33138;SDS011;19501;50.948;5.316;2023-04-25T04:15:12;28.10;;;7.40;;
33138;SDS011;19501;50.948;5.316;2023-04-25T04:17:37;28.35;;;7.45;;
33138;SDS011;19501;50.948;5.316;2023-04-25T04:20:03;28.48;;;7.22;;
33138;SDS011;19501;50.948;5.316;2023-04-25T04:22:31;24.80;;;7.03;;
33138;SDS011;19501;50.948;5.316;2023-04-25T04:24:57;25.40;;;6.75;;
33138;SDS011;19501;50.948;5.316;2023-04-25T04:27:22;24.40;;;6.03;;
33138;SDS011;19501;50.948;5.316;2023-04-25T04:29:48;29.88;;;6.70;;
33138;SDS011;19501;50.948;5.316;2023-04-25T04:32:16;24.23;;;5.95;;
33138;SDS011;19501;50.948;5.316;2023-04-25T04:34:44;25.10;;;5.78;;
33138;SDS011;19501;50.948;5.316;2023-04-25T04:37:12;19.45;;;5.55;;
33138;SDS011;19501;50.948;5.316;2023-04-25T04:39:38;23.27;;;5.25;;
33138;SDS011;19501;50.948;5.316;2023-04-25T04:42:04;22.92;;;5.28;;
33138;SDS011;19501;50.948;5.316;2023-04-25T04:44:30;21.45;;;5.93;;
33138;SDS011;19501;50.948;5.316;2023-04-25T04:47:00;22.17;;;5.53;;
33138;SDS011;19501;50.948;5.316;2023-04-25T04:49:26;21.75;;;5.72;;
33138;SDS011;19501;50.948;5.316;2023-04-25T04:51:52;19.40;;;5.78;;
33138;SDS011;19501;50.948;5.316;2023-04-25T04:54:19;18.05;;;4.50;;
33138;SDS011;19501;50.948;5.316;2023-04-25T04:56:45;20.45;;;5.13;;
33138;SDS011;19501;50.948;5.316;2023-04-25T04:59:10;22.42;;;5.80;;
33138;SDS011;19501;50.948;5.316;2023-04-25T05:01:36;20.15;;;5.00;;
33138;SDS011;19501;50.948;5.316;2023-04-25T05:04:02;15.98;;;5.07;;
33138;SDS011;19501;50.948;5.316;2023-04-25T05:06:29;18.25;;;5.57;;
33138;SDS011;19501;50.948;5.316;2023-04-25T05:08:55;21.30;;;5.32;;
33138;SDS011;19501;50.948;5.316;2023-04-25T05:11:21;19.95;;;5.18;;
33138;SDS011;19501;50.948;5.316;2023-04-25T05:13:48;16.90;;;5.30;;
33138;SDS011;19501;50.948;5.316;2023-04-25T05:16:14;22.92;;;5.80;;
33138;SDS011;19501;50.948;5.316;2023-04-25T05:18:40;24.10;;;6.80;;
33138;SDS011;19501;50.948;5.316;2023-04-25T05:21:06;19.73;;;5.60;;
33138;SDS011;19501;50.948;5.316;2023-04-25T05:23:34;21.55;;;6.40;;
33138;SDS011;19501;50.948;5.316;2023-04-25T05:26:00;19.05;;;5.57;;
33138;SDS011;19501;50.948;5.316;2023-04-25T05:28:26;15.75;;;5.20;;
33138;SDS011;19501;50.948;5.316;2023-04-25T05:30:52;25.92;;;6.35;;
33138;SDS011;19501;50.948;5.316;2023-04-25T05:33:17;20.42;;;5.97;;
33138;SDS011;19501;50.948;5.316;2023-04-25T05:35:44;20.02;;;5.55;;
33138;SDS011;19501;50.948;5.316;2023-04-25T05:38:10;19.60;;;5.65;;
33138;SDS011;19501;50.948;5.316;2023-04-25T05:40:35;20.55;;;5.63;;
33138;SDS011;19501;50.948;5.316;2023-04-25T05:43:01;22.88;;;5.03;;
33138;SDS011;19501;50.948;5.316;2023-04-25T05:45:27;22.70;;;5.97;;
33138;SDS011;19501;50.948;5.316;2023-04-25T05:47:53;20.90;;;5.60;;
33138;SDS011;19501;50.948;5.316;2023-04-25T05:50:18;17.98;;;5.15;;
33138;SDS011;19501;50.948;5.316;2023-04-25T05:52:44;23.45;;;6.20;;
33138;SDS011;19501;50.948;5.316;2023-04-25T05:55:10;21.35;;;5.80;;
33138;SDS011;19501;50.948;5.316;2023-04-25T05:57:35;20.58;;;5.65;;
33138;SDS011;19501;50.948;5.316;2023-04-25T06:00:01;29.45;;;7.18;;
33138;SDS011;19501;50.948;5.316;2023-04-25T06:02:28;19.92;;;5.93;;
33138;SDS011;19501;50.948;5.316;2023-04-25T06:04:53;20.63;;;5.97;;
33138;SDS011;19501;50.948;5.316;2023-04-25T06:07:19;23.48;;;6.45;;
33138;SDS011;19501;50.948;5.316;2023-04-25T06:09:45;25.10;;;7.07;;
33138;SDS011;19501;50.948;5.316;2023-04-25T06:12:11;23.23;;;6.80;;
33138;SDS011;19501;50.948;5.316;2023-04-25T06:14:37;24.95;;;6.53;;
33138;SDS011;19501;50.948;5.316;2023-04-25T06:17:05;22.23;;;5.95;;
33138;SDS011;19501;50.948;5.316;2023-04-25T06:19:34;27.25;;;7.18;;
33138;SDS011;19501;50.948;5.316;2023-04-25T06:22:00;23.73;;;7.20;;
33138;SDS011;19501;50.948;5.316;2023-04-25T06:24:26;25.92;;;8.40;;
33138;SDS011;19501;50.948;5.316;2023-04-25T06:26:52;30.55;;;7.72;;
33138;SDS011;19501;50.948;5.316;2023-04-25T06:29:18;28.63;;;7.25;;
33138;SDS011;19501;50.948;5.316;2023-04-25T06:31:44;30.73;;;7.07;;
33138;SDS011;19501;50.948;5.316;2023-04-25T06:34:10;33.60;;;8.35;;
33138;SDS011;19501;50.948;5.316;2023-04-25T06:36:35;31.67;;;8.52;;
33138;SDS011;19501;50.948;5.316;2023-04-25T06:39:01;26.20;;;7.75;;
33138;SDS011;19501;50.948;5.316;2023-04-25T06:41:27;21.90;;;6.95;;
33138;SDS011;19501;50.948;5.316;2023-04-25T06:43:53;31.05;;;10.80;;
33138;SDS011;19501;50.948;5.316;2023-04-25T06:46:19;34.58;;;8.50;;
33138;SDS011;19501;50.948;5.316;2023-04-25T06:48:44;25.92;;;7.32;;
33138;SDS011;19501;50.948;5.316;2023-04-25T06:51:10;30.45;;;8.25;;
33138;SDS011;19501;50.948;5.316;2023-04-25T06:53:36;26.23;;;7.10;;
33138;SDS011;19501;50.948;5.316;2023-04-25T06:56:01;32.80;;;8.32;;
33138;SDS011;19501;50.948;5.316;2023-04-25T06:58:28;27.83;;;8.13;;
33138;SDS011;19501;50.948;5.316;2023-04-25T07:00:53;29.35;;;8.68;;
33138;SDS011;19501;50.948;5.316;2023-04-25T07:03:19;33.20;;;8.43;;
33138;SDS011;19501;50.948;5.316;2023-04-25T07:05:45;29.63;;;8.60;;
33138;SDS011;19501;50.948;5.316;2023-04-25T07:08:11;26.17;;;7.93;;
33138;SDS011;19501;50.948;5.316;2023-04-25T07:10:37;25.88;;;8.13;;
33138;SDS011;19501;50.948;5.316;2023-04-25T07:13:02;31.73;;;9.02;;
33138;SDS011;19501;50.948;5.316;2023-04-25T07:15:28;30.65;;;9.68;;
33138;SDS011;19501;50.948;5.316;2023-04-25T07:17:54;28.05;;;8.88;;
33138;SDS011;19501;50.948;5.316;2023-04-25T07:20:20;29.83;;;9.85;;
33138;SDS011;19501;50.948;5.316;2023-04-25T07:22:45;25.95;;;8.45;;
33138;SDS011;19501;50.948;5.316;2023-04-25T07:25:11;29.30;;;9.38;;
33138;SDS011;19501;50.948;5.316;2023-04-25T07:27:37;25.45;;;7.63;;
33138;SDS011;19501;50.948;5.316;2023-04-25T07:30:03;29.05;;;8.68;;
33138;SDS011;19501;50.948;5.316;2023-04-25T07:32:29;32.10;;;8.60;;
33138;SDS011;19501;50.948;5.316;2023-04-25T07:34:55;27.33;;;8.82;;
33138;SDS011;19501;50.948;5.316;2023-04-25T07:37:21;26.25;;;7.47;;
33138;SDS011;19501;50.948;5.316;2023-04-25T07:39:46;25.15;;;6.30;;
33138;SDS011;19501;50.948;5.316;2023-04-25T07:42:12;24.88;;;6.25;;
33138;SDS011;19501;50.948;5.316;2023-04-25T07:44:38;22.83;;;5.63;;
33138;SDS011;19501;50.948;5.316;2023-04-25T07:47:08;21.15;;;5.47;;
33138;SDS011;19501;50.948;5.316;2023-04-25T07:49:37;20.00;;;5.00;;
33138;SDS011;19501;50.948;5.316;2023-04-25T07:52:04;21.48;;;5.18;;
33138;SDS011;19501;50.948;5.316;2023-04-25T07:54:31;27.08;;;6.18;;
33138;SDS011;19501;50.948;5.316;2023-04-25T07:56:57;31.17;;;5.47;;
33138;SDS011;19501;50.948;5.316;2023-04-25T07:59:23;15.43;;;4.43;;
33138;SDS011;19501;50.948;5.316;2023-04-25T08:01:49;20.88;;;5.05;;
33138;SDS011;19501;50.948;5.316;2023-04-25T08:04:15;20.73;;;4.95;;
33138;SDS011;19501;50.948;5.316;2023-04-25T08:06:41;17.80;;;4.20;;
33138;SDS011;19501;50.948;5.316;2023-04-25T08:09:07;14.73;;;3.85;;
33138;SDS011;19501;50.948;5.316;2023-04-25T08:11:34;19.30;;;4.15;;
33138;SDS011;19501;50.948;5.316;2023-04-25T08:14:00;23.48;;;4.40;;
33138;SDS011;19501;50.948;5.316;2023-04-25T08:16:26;16.83;;;3.92;;
33138;SDS011;19501;50.948;5.316;2023-04-25T08:18:52;14.82;;;3.45;;
33138;SDS011;19501;50.948;5.316;2023-04-25T08:21:18;21.02;;;4.50;;
33138;SDS011;19501;50.948;5.316;2023-04-25T08:23:45;16.20;;;4.07;;
33138;SDS011;19501;50.948;5.316;2023-04-25T08:26:11;17.77;;;4.32;;
33138;SDS011;19501;50.948;5.316;2023-04-25T08:28:36;17.75;;;3.97;;
33138;SDS011;19501;50.948;5.316;2023-04-25T08:31:02;18.48;;;3.95;;
33138;SDS011;19501;50.948;5.316;2023-04-25T08:33:28;17.85;;;3.90;;
33138;SDS011;19501;50.948;5.316;2023-04-25T08:35:55;19.65;;;4.75;;
33138;SDS011;19501;50.948;5.316;2023-04-25T08:38:21;23.83;;;4.85;;
33138;SDS011;19501;50.948;5.316;2023-04-25T08:40:48;16.83;;;4.60;;
33138;SDS011;19501;50.948;5.316;2023-04-25T08:43:18;14.13;;;4.05;;
33138;SDS011;19501;50.948;5.316;2023-04-25T08:45:45;22.23;;;5.05;;
33138;SDS011;19501;50.948;5.316;2023-04-25T08:48:12;18.52;;;4.93;;
33138;SDS011;19501;50.948;5.316;2023-04-25T08:50:39;21.17;;;5.00;;
33138;SDS011;19501;50.948;5.316;2023-04-25T08:53:10;22.63;;;5.50;;
33138;SDS011;19501;50.948;5.316;2023-04-25T08:55:42;20.30;;;5.55;;
33138;SDS011;19501;50.948;5.316;2023-04-25T08:58:10;22.08;;;6.03;;
33138;SDS011;19501;50.948;5.316;2023-04-25T09:00:36;19.63;;;5.53;;
33138;SDS011;19501;50.948;5.316;2023-04-25T09:03:02;24.33;;;6.72;;
33138;SDS011;19501;50.948;5.316;2023-04-25T09:05:28;26.90;;;7.45;;
33138;SDS011;19501;50.948;5.316;2023-04-25T09:07:54;23.10;;;7.70;;
33138;SDS011;19501;50.948;5.316;2023-04-25T09:10:21;26.42;;;8.52;;
33138;SDS011;19501;50.948;5.316;2023-04-25T09:13:06;42.22;;;8.73;;
33138;SDS011;19501;50.948;5.316;2023-04-25T09:18:13;22.98;;;7.13;;
33138;SDS011;19501;50.948;5.316;2023-04-25T09:20:42;23.02;;;7.53;;
33138;SDS011;19501;50.948;5.316;2023-04-25T09:23:08;26.45;;;6.43;;
33138;SDS011;19501;50.948;5.316;2023-04-25T09:25:36;22.60;;;7.72;;
33138;SDS011;19501;50.948;5.316;2023-04-25T09:28:04;28.30;;;6.72;;
33138;SDS011;19501;50.948;5.316;2023-04-25T09:30:32;23.52;;;6.60;;
33138;SDS011;19501;50.948;5.316;2023-04-25T09:33:06;14.05;;;4.78;;
33138;SDS011;19501;50.948;5.316;2023-04-25T09:35:36;21.02;;;5.22;;
33138;SDS011;19501;50.948;5.316;2023-04-25T09:38:22;16.90;;;5.10;;
33138;SDS011;19501;50.948;5.316;2023-04-25T09:40:51;16.23;;;4.65;;
33138;SDS011;19501;50.948;5.316;2023-04-25T09:43:20;20.50;;;5.90;;
33138;SDS011;19501;50.948;5.316;2023-04-25T09:45:47;18.42;;;5.05;;
33138;SDS011;19501;50.948;5.316;2023-04-25T09:48:20;18.67;;;5.68;;
33138;SDS011;19501;50.948;5.316;2023-04-25T09:51:03;17.95;;;4.47;;
33138;SDS011;19501;50.948;5.316;2023-04-25T09:53:29;15.90;;;4.63;;
33138;SDS011;19501;50.948;5.316;2023-04-25T09:55:55;19.27;;;4.95;;
33138;SDS011;19501;50.948;5.316;2023-04-25T09:58:21;17.05;;;4.75;;
33138;SDS011;19501;50.948;5.316;2023-04-25T10:00:50;23.70;;;5.25;;
33138;SDS011;19501;50.948;5.316;2023-04-25T10:03:17;21.92;;;4.65;;
33138;SDS011;19501;50.948;5.316;2023-04-25T10:05:44;16.92;;;4.68;;
33138;SDS011;19501;50.948;5.316;2023-04-25T10:08:12;14.77;;;4.28;;
33138;SDS011;19501;50.948;5.316;2023-04-25T10:10:38;11.82;;;4.35;;
33138;SDS011;19501;50.948;5.316;2023-04-25T10:13:05;15.23;;;4.65;;
33138;SDS011;19501;50.948;5.316;2023-04-25T10:15:34;18.27;;;5.45;;
33138;SDS011;19501;50.948;5.316;2023-04-25T10:18:03;22.80;;;5.45;;
33138;SDS011;19501;50.948;5.316;2023-04-25T10:20:31;16.33;;;5.22;;
33138;SDS011;19501;50.948;5.316;2023-04-25T10:22:58;20.90;;;4.80;;
33138;SDS011;19501;50.948;5.316;2023-04-25T10:25:33;15.60;;;4.38;;
33138;SDS011;19501;50.948;5.316;2023-04-25T10:28:00;13.93;;;3.55;;
33138;SDS011;19501;50.948;5.316;2023-04-25T10:30:27;24.10;;;5.65;;
33138;SDS011;19501;50.948;5.316;2023-04-25T10:32:54;12.32;;;4.20;;
33138;SDS011;19501;50.948;5.316;2023-04-25T10:35:27;15.20;;;3.78;;
33138;SDS011;19501;50.948;5.316;2023-04-25T10:40:33;14.95;;;3.15;;
33138;SDS011;19501;50.948;5.316;2023-04-25T10:46:02;11.32;;;2.65;;
33138;SDS011;19501;50.948;5.316;2023-04-25T10:48:37;10.43;;;2.63;;
33138;SDS011;19501;50.948;5.316;2023-04-25T10:51:25;10.43;;;2.40;;
33138;SDS011;19501;50.948;5.316;2023-04-25T10:56:21;10.27;;;2.58;;
33138;SDS011;19501;50.948;5.316;2023-04-25T10:58:48;8.63;;;2.60;;
33138;SDS011;19501;50.948;5.316;2023-04-25T11:01:14;9.93;;;3.22;;
33138;SDS011;19501;50.948;5.316;2023-04-25T11:03:45;8.25;;;2.67;;
33138;SDS011;19501;50.948;5.316;2023-04-25T11:07:03;12.75;;;2.33;;
33138;SDS011;19501;50.948;5.316;2023-04-25T11:09:16;8.18;;;2.70;;
33138;SDS011;19501;50.948;5.316;2023-04-25T11:11:42;12.10;;;2.55;;
33138;SDS011;19501;50.948;5.316;2023-04-25T11:14:08;7.18;;;2.47;;
33138;SDS011;19501;50.948;5.316;2023-04-25T11:16:33;13.40;;;2.60;;
33138;SDS011;19501;50.948;5.316;2023-04-25T11:19:01;11.45;;;2.40;;
33138;SDS011;19501;50.948;5.316;2023-04-25T11:21:27;10.75;;;2.65;;
33138;SDS011;19501;50.948;5.316;2023-04-25T11:23:53;10.07;;;2.50;;
33138;SDS011;19501;50.948;5.316;2023-04-25T11:26:21;7.95;;;2.83;;
33138;SDS011;19501;50.948;5.316;2023-04-25T11:28:48;7.85;;;2.15;;
33138;SDS011;19501;50.948;5.316;2023-04-25T11:31:18;7.35;;;2.58;;
33138;SDS011;19501;50.948;5.316;2023-04-25T11:33:46;8.60;;;2.50;;
33138;SDS011;19501;50.948;5.316;2023-04-25T11:36:12;16.25;;;7.50;;
33138;SDS011;19501;50.948;5.316;2023-04-25T11:38:38;7.45;;;2.75;;
33138;SDS011;19501;50.948;5.316;2023-04-25T11:41:05;10.07;;;2.83;;
33138;SDS011;19501;50.948;5.316;2023-04-25T11:43:31;10.30;;;3.00;;
33138;SDS011;19501;50.948;5.316;2023-04-25T11:45:59;12.98;;;3.15;;
33138;SDS011;19501;50.948;5.316;2023-04-25T11:48:25;9.20;;;3.85;;
33138;SDS011;19501;50.948;5.316;2023-04-25T11:50:53;10.52;;;2.70;;
33138;SDS011;19501;50.948;5.316;2023-04-25T11:53:20;11.52;;;3.10;;
33138;SDS011;19501;50.948;5.316;2023-04-25T11:55:46;11.85;;;3.88;;
33138;SDS011;19501;50.948;5.316;2023-04-25T11:58:11;12.65;;;3.05;;
33138;SDS011;19501;50.948;5.316;2023-04-25T12:00:38;11.88;;;2.80;;
33138;SDS011;19501;50.948;5.316;2023-04-25T12:03:08;20.42;;;3.55;;
33138;SDS011;19501;50.948;5.316;2023-04-25T12:05:34;13.85;;;2.95;;
33138;SDS011;19501;50.948;5.316;2023-04-25T12:08:10;9.20;;;3.38;;
33138;SDS011;19501;50.948;5.316;2023-04-25T12:10:37;8.23;;;3.10;;
33138;SDS011;19501;50.948;5.316;2023-04-25T12:13:20;12.85;;;3.60;;
33138;SDS011;19501;50.948;5.316;2023-04-25T12:15:50;7.47;;;3.20;;
33138;SDS011;19501;50.948;5.316;2023-04-25T12:18:23;14.15;;;3.85;;
33138;SDS011;19501;50.948;5.316;2023-04-25T12:20:53;12.90;;;4.30;;
33138;SDS011;19501;50.948;5.316;2023-04-25T12:23:24;16.67;;;5.28;;
33138;SDS011;19501;50.948;5.316;2023-04-25T12:25:52;15.18;;;4.20;;
33138;SDS011;19501;50.948;5.316;2023-04-25T12:28:18;10.65;;;4.10;;
33138;SDS011;19501;50.948;5.316;2023-04-25T12:31:18;12.38;;;4.00;;
33138;SDS011;19501;50.948;5.316;2023-04-25T12:33:40;13.00;;;4.10;;
33138;SDS011;19501;50.948;5.316;2023-04-25T12:36:07;14.77;;;4.05;;
33138;SDS011;19501;50.948;5.316;2023-04-25T12:38:40;10.48;;;3.90;;
33138;SDS011;19501;50.948;5.316;2023-04-25T12:41:07;12.95;;;4.00;;
33138;SDS011;19501;50.948;5.316;2023-04-25T12:43:33;7.53;;;3.63;;
33138;SDS011;19501;50.948;5.316;2023-04-25T12:45:59;10.15;;;4.03;;
33138;SDS011;19501;50.948;5.316;2023-04-25T12:48:25;10.07;;;4.18;;
33138;SDS011;19501;50.948;5.316;2023-04-25T12:50:51;11.13;;;4.03;;
33138;SDS011;19501;50.948;5.316;2023-04-25T12:53:22;12.40;;;3.50;;
33138;SDS011;19501;50.948;5.316;2023-04-25T12:55:49;12.57;;;3.35;;
33138;SDS011;19501;50.948;5.316;2023-04-25T12:58:16;11.55;;;3.58;;
33138;SDS011;19501;50.948;5.316;2023-04-25T13:00:43;15.52;;;3.45;;
33138;SDS011;19501;50.948;5.316;2023-04-25T13:03:09;9.88;;;3.05;;
33138;SDS011;19501;50.948;5.316;2023-04-25T13:05:36;9.45;;;3.10;;
33138;SDS011;19501;50.948;5.316;2023-04-25T13:08:02;10.98;;;2.80;;
33138;SDS011;19501;50.948;5.316;2023-04-25T13:10:30;9.38;;;2.85;;
33138;SDS011;19501;50.948;5.316;2023-04-25T13:12:58;9.10;;;2.97;;
33138;SDS011;19501;50.948;5.316;2023-04-25T13:15:24;7.55;;;2.90;;
33138;SDS011;19501;50.948;5.316;2023-04-25T13:17:50;8.98;;;3.00;;
33138;SDS011;19501;50.948;5.316;2023-04-25T13:20:16;12.65;;;3.20;;
33138;SDS011;19501;50.948;5.316;2023-04-25T13:22:43;13.23;;;3.92;;
33138;SDS011;19501;50.948;5.316;2023-04-25T13:25:10;12.75;;;3.50;;
33138;SDS011;19501;50.948;5.316;2023-04-25T13:27:36;12.38;;;3.55;;
33138;SDS011;19501;50.948;5.316;2023-04-25T13:30:03;11.20;;;3.53;;
33138;SDS011;19501;50.948;5.316;2023-04-25T13:32:35;16.02;;;4.30;;
33138;SDS011;19501;50.948;5.316;2023-04-25T13:35:09;11.38;;;4.00;;
33138;SDS011;19501;50.948;5.316;2023-04-25T13:37:39;11.75;;;4.18;;
33138;SDS011;19501;50.948;5.316;2023-04-25T13:40:06;13.20;;;4.20;;
33138;SDS011;19501;50.948;5.316;2023-04-25T13:42:34;11.82;;;3.45;;
33138;SDS011;19501;50.948;5.316;2023-04-25T13:45:00;15.18;;;4.10;;
33138;SDS011;19501;50.948;5.316;2023-04-25T13:47:28;11.50;;;3.58;;
33138;SDS011;19501;50.948;5.316;2023-04-25T13:49:55;11.00;;;3.60;;
33138;SDS011;19501;50.948;5.316;2023-04-25T13:52:21;10.63;;;3.95;;
33138;SDS011;19501;50.948;5.316;2023-04-25T13:54:46;8.88;;;3.40;;
33138;SDS011;19501;50.948;5.316;2023-04-25T13:57:12;20.45;;;4.57;;
33138;SDS011;19501;50.948;5.316;2023-04-25T13:59:41;14.57;;;3.60;;
33138;SDS011;19501;50.948;5.316;2023-04-25T14:02:06;14.07;;;3.75;;
33138;SDS011;19501;50.948;5.316;2023-04-25T14:04:32;12.23;;;3.17;;
33138;SDS011;19501;50.948;5.316;2023-04-25T14:06:58;12.95;;;3.33;;
33138;SDS011;19501;50.948;5.316;2023-04-25T14:09:24;10.50;;;3.42;;
33138;SDS011;19501;50.948;5.316;2023-04-25T14:11:53;16.52;;;6.00;;
33138;SDS011;19501;50.948;5.316;2023-04-25T14:14:20;13.65;;;4.65;;
33138;SDS011;19501;50.948;5.316;2023-04-25T14:16:49;9.77;;;3.20;;
33138;SDS011;19501;50.948;5.316;2023-04-25T14:19:16;13.65;;;4.00;;
33138;SDS011;19501;50.948;5.316;2023-04-25T14:21:43;11.50;;;3.22;;
33138;SDS011;19501;50.948;5.316;2023-04-25T14:24:09;8.63;;;2.80;;
33138;SDS011;19501;50.948;5.316;2023-04-25T14:26:36;12.73;;;3.88;;
33138;SDS011;19501;50.948;5.316;2023-04-25T14:29:02;5.22;;;2.22;;
33138;SDS011;19501;50.948;5.316;2023-04-25T14:31:29;13.45;;;3.05;;
33138;SDS011;19501;50.948;5.316;2023-04-25T14:33:55;10.40;;;2.95;;
33138;SDS011;19501;50.948;5.316;2023-04-25T14:36:23;11.90;;;3.08;;
33138;SDS011;19501;50.948;5.316;2023-04-25T14:38:48;6.00;;;2.50;;
33138;SDS011;19501;50.948;5.316;2023-04-25T14:41:14;8.93;;;2.70;;
33138;SDS011;19501;50.948;5.316;2023-04-25T14:43:40;12.05;;;2.97;;
33138;SDS011;19501;50.948;5.316;2023-04-25T14:46:06;7.60;;;2.67;;